createdAt,value
2023-11-22T00:02:21.316Z,2.70
2023-11-22T00:04:48.779Z,2.47
2023-11-22T00:07:16.276Z,2.72
2023-11-22T00:09:44.250Z,2.85
2023-11-22T00:12:11.886Z,3.33
2023-11-22T00:14:40.812Z,2.03
2023-11-22T00:17:08.410Z,3.63
2023-11-22T00:19:35.884Z,2.78
2023-11-22T00:22:06.583Z,2.60
2023-11-22T00:24:34.455Z,2.63
2023-11-22T00:27:01.937Z,2.53
2023-11-22T00:29:29.496Z,2.30
2023-11-22T00:31:58.381Z,2.63
2023-11-22T00:34:25.873Z,2.03
2023-11-22T00:36:53.425Z,2.83
2023-11-22T00:39:20.958Z,2.00
2023-11-22T00:41:48.675Z,2.35
2023-11-22T00:44:16.674Z,2.30
2023-11-22T00:46:46.743Z,2.38
2023-11-22T00:49:15.645Z,2.60
2023-11-22T00:51:43.161Z,2.40
2023-11-22T00:54:10.656Z,2.22
2023-11-22T00:56:38.146Z,2.03
2023-11-22T00:59:05.682Z,2.55
2023-11-22T01:01:33.653Z,2.22
2023-11-22T01:04:01.357Z,1.70
2023-11-22T01:06:30.223Z,1.75
2023-11-22T01:08:57.683Z,1.73
2023-11-22T01:11:25.260Z,2.33
2023-11-22T01:13:52.854Z,1.90
2023-11-22T01:16:20.372Z,2.30
2023-11-22T01:18:48.180Z,2.42
2023-11-22T01:21:15.676Z,2.30
2023-11-22T01:23:46.224Z,2.10
2023-11-22T01:26:13.725Z,2.00
2023-11-22T01:28:45.263Z,2.10
2023-11-22T01:31:13.433Z,2.53
2023-11-22T01:33:41.468Z,2.22
2023-11-22T01:36:09.438Z,2.30
2023-11-22T01:38:37.014Z,2.33
2023-11-22T01:41:06.119Z,2.50
2023-11-22T01:43:33.649Z,2.35
2023-11-22T01:46:01.809Z,2.03
2023-11-22T01:48:29.548Z,2.30
2023-11-22T01:50:57.264Z,1.77
2023-11-22T01:53:24.998Z,2.10
2023-11-22T01:55:52.681Z,2.30
2023-11-22T01:58:21.968Z,2.38
2023-11-22T02:00:51.390Z,2.13
2023-11-22T02:03:19.864Z,2.10
2023-11-22T02:05:47.785Z,2.72
2023-11-22T02:08:15.386Z,2.05
2023-11-22T02:10:43.059Z,2.00
2023-11-22T02:13:11.264Z,2.30
2023-11-22T02:15:40.138Z,2.40
2023-11-22T02:18:13.060Z,2.58
2023-11-22T02:20:42.336Z,2.33
2023-11-22T02:23:12.451Z,2.30
2023-11-22T02:25:40.292Z,2.47
2023-11-22T02:28:09.565Z,2.30
2023-11-22T02:30:37.725Z,1.65
2023-11-22T02:33:06.035Z,2.42
2023-11-22T02:35:34.045Z,2.30
2023-11-22T02:38:01.864Z,1.75
2023-11-22T02:40:30.691Z,2.00
2023-11-22T02:42:58.746Z,1.85
2023-11-22T02:45:27.701Z,1.95
2023-11-22T02:47:55.242Z,2.20
2023-11-22T02:50:22.889Z,2.15
2023-11-22T02:52:50.382Z,2.08
2023-11-22T02:55:18.085Z,2.42
2023-11-22T02:57:47.283Z,2.15
2023-11-22T03:00:15.836Z,2.03
2023-11-22T03:02:43.514Z,2.38
2023-11-22T03:05:11.904Z,2.50
2023-11-22T03:07:39.436Z,1.85
2023-11-22T03:10:08.746Z,2.30
2023-11-22T03:12:36.358Z,2.03
2023-11-22T03:15:05.504Z,1.92
2023-11-22T03:17:34.232Z,2.22
2023-11-22T03:20:02.746Z,1.97
2023-11-22T03:22:31.439Z,2.47
2023-11-22T03:24:59.866Z,2.30
2023-11-22T03:27:27.540Z,2.00
2023-11-22T03:29:55.096Z,2.08
2023-11-22T03:32:26.528Z,2.20
2023-11-22T03:34:54.045Z,2.30
2023-11-22T03:37:21.616Z,2.55
2023-11-22T03:39:50.261Z,2.55
2023-11-22T03:42:18.375Z,1.67
2023-11-22T03:44:45.898Z,2.30
2023-11-22T03:47:14.546Z,2.30
2023-11-22T03:49:44.013Z,2.30
2023-11-22T03:52:12.531Z,2.20
2023-11-22T03:54:40.525Z,1.83
2023-11-22T03:57:08.125Z,1.75
2023-11-22T03:59:36.452Z,2.15
2023-11-22T04:02:04.003Z,2.22
2023-11-22T04:04:32.003Z,2.65
2023-11-22T04:07:00.851Z,2.33
2023-11-22T04:09:28.331Z,1.83
2023-11-22T04:11:55.833Z,2.13
2023-11-22T04:14:23.414Z,2.28
2023-11-22T04:16:51.353Z,2.08
2023-11-22T04:19:19.317Z,2.35
2023-11-22T04:21:47.174Z,1.95
2023-11-22T04:24:15.991Z,2.08
2023-11-22T04:26:43.582Z,2.10
2023-11-22T04:29:11.150Z,2.35
2023-11-22T04:31:38.676Z,1.90
2023-11-22T04:34:06.243Z,2.22
2023-11-22T04:36:33.740Z,2.35
2023-11-22T04:39:01.438Z,2.25
2023-11-22T04:41:30.376Z,1.95
2023-11-22T04:43:58.291Z,2.13
2023-11-22T04:46:25.810Z,2.00
2023-11-22T04:48:53.547Z,2.20
2023-11-22T04:51:21.069Z,2.33
2023-11-22T04:53:48.533Z,1.83
2023-11-22T04:56:16.153Z,2.10
2023-11-22T04:58:44.959Z,2.42
2023-11-22T05:01:12.458Z,2.92
2023-11-22T05:03:40.029Z,2.80
2023-11-22T05:06:08.616Z,2.42
2023-11-22T05:08:36.620Z,2.15
2023-11-22T05:11:04.903Z,2.55
2023-11-22T05:13:32.407Z,2.85
2023-11-22T05:16:02.045Z,2.80
2023-11-22T05:18:29.663Z,2.80
2023-11-22T05:20:57.168Z,2.78
2023-11-22T05:23:24.681Z,3.38
2023-11-22T05:25:53.114Z,2.85
2023-11-22T05:28:20.846Z,2.53
2023-11-22T05:30:48.328Z,3.47
2023-11-22T05:33:17.167Z,2.40
2023-11-22T05:35:44.838Z,1.33
2023-11-22T05:38:13.162Z,2.97
2023-11-22T05:40:40.697Z,2.17
2023-11-22T05:43:12.689Z,2.40
2023-11-22T05:45:40.825Z,2.50
2023-11-22T05:48:08.417Z,2.53
2023-11-22T05:50:37.430Z,2.05
2023-11-22T05:53:05.075Z,2.40
2023-11-22T05:55:33.209Z,3.05
2023-11-22T05:58:00.705Z,2.85
2023-11-22T06:00:28.386Z,2.50
2023-11-22T06:02:56.607Z,3.25
2023-11-22T06:05:24.284Z,3.03
2023-11-22T06:07:53.487Z,3.20
2023-11-22T06:10:21.021Z,2.55
2023-11-22T06:12:48.512Z,2.85
2023-11-22T06:15:15.999Z,2.60
2023-11-22T06:17:43.543Z,3.28
2023-11-22T06:20:12.375Z,2.75
2023-11-22T06:22:42.183Z,2.85
2023-11-22T06:27:38.441Z,3.00
2023-11-22T06:30:07.234Z,2.40
2023-11-22T06:32:35.162Z,3.08
2023-11-22T06:35:02.820Z,3.38
2023-11-22T06:37:30.336Z,3.20
2023-11-22T06:39:58.814Z,3.53
2023-11-22T06:42:26.351Z,3.38
2023-11-22T06:44:59.081Z,3.20
2023-11-22T06:47:26.650Z,3.38
2023-11-22T06:49:54.284Z,3.10
2023-11-22T06:52:21.890Z,3.15
2023-11-22T06:54:49.440Z,2.92
2023-11-22T06:57:16.925Z,3.00
2023-11-22T06:59:44.886Z,4.10
2023-11-22T07:02:15.446Z,3.30
2023-11-22T07:04:43.390Z,3.53
2023-11-22T07:07:12.130Z,3.53
2023-11-22T07:09:43.771Z,3.53
2023-11-22T07:12:11.351Z,3.50
2023-11-22T07:14:40.573Z,3.42
2023-11-22T07:17:08.501Z,3.15
2023-11-22T07:19:39.461Z,3.55
2023-11-22T07:22:17.056Z,3.25
2023-11-22T07:24:45.903Z,3.40
2023-11-22T07:27:13.595Z,3.45
2023-11-22T07:29:42.004Z,2.92
2023-11-22T07:32:11.177Z,3.30
2023-11-22T07:34:41.866Z,3.00
2023-11-22T07:37:09.696Z,3.60
2023-11-22T07:39:37.606Z,3.85
2023-11-22T07:42:08.859Z,3.47
2023-11-22T07:44:37.219Z,3.38
2023-11-22T07:47:08.896Z,3.17
2023-11-22T07:49:38.621Z,3.60
2023-11-22T07:52:08.218Z,3.00
2023-11-22T07:57:04.520Z,3.97
2023-11-22T07:59:32.222Z,3.65
2023-11-22T08:02:02.702Z,3.25
2023-11-22T08:04:33.344Z,3.00
2023-11-22T08:07:02.532Z,3.22
2023-11-22T08:09:33.844Z,4.07
2023-11-22T08:12:06.143Z,4.18
2023-11-22T08:14:34.780Z,3.92
2023-11-22T08:17:03.077Z,2.85
2023-11-22T08:19:30.717Z,3.67
2023-11-22T08:21:58.321Z,4.10
2023-11-22T08:24:25.875Z,3.65
2023-11-22T08:26:54.683Z,3.97
2023-11-22T08:29:23.301Z,3.72
2023-11-22T08:31:52.079Z,3.72
2023-11-22T08:34:19.635Z,3.60
2023-11-22T08:36:49.001Z,4.57
2023-11-22T08:39:16.739Z,4.05
2023-11-22T08:41:44.261Z,3.78
2023-11-22T08:44:13.195Z,5.35
2023-11-22T08:46:40.809Z,5.10
2023-11-22T08:49:08.657Z,6.03
2023-11-22T08:51:36.163Z,5.65
2023-11-22T08:54:03.945Z,6.05
2023-11-22T08:56:31.647Z,7.05
2023-11-22T08:58:59.176Z,6.97
2023-11-22T09:01:28.160Z,6.72
2023-11-22T09:03:55.797Z,6.67
2023-11-22T09:06:23.431Z,6.60
2023-11-22T09:08:51.122Z,7.40
2023-11-22T09:11:21.223Z,6.88
2023-11-22T09:13:49.044Z,8.27
2023-11-22T09:16:17.802Z,7.22
2023-11-22T09:18:46.779Z,6.60
2023-11-22T09:21:16.764Z,7.00
2023-11-22T09:23:45.912Z,7.30
2023-11-22T09:26:13.449Z,7.18
2023-11-22T09:28:41.741Z,6.90
2023-11-22T09:31:09.558Z,7.50
2023-11-22T09:33:38.221Z,7.43
2023-11-22T09:36:11.068Z,7.10
2023-11-22T09:38:40.023Z,7.68
2023-11-22T09:41:09.085Z,7.65
2023-11-22T09:43:36.694Z,7.13
2023-11-22T09:46:05.898Z,8.57
2023-11-22T09:48:33.895Z,7.30
2023-11-22T09:51:04.589Z,7.20
2023-11-22T09:53:35.630Z,7.57
2023-11-22T09:56:03.767Z,8.05
2023-11-22T09:58:32.053Z,7.35
2023-11-22T10:00:59.960Z,7.72
2023-11-22T10:03:28.424Z,6.88
2023-11-22T10:05:58.368Z,7.72
2023-11-22T10:10:55.484Z,6.97
2023-11-22T10:13:24.215Z,6.18
2023-11-22T10:15:52.130Z,7.90
2023-11-22T10:18:19.824Z,6.70
2023-11-22T10:20:50.397Z,8.13
2023-11-22T10:23:18.811Z,6.35
2023-11-22T10:25:46.631Z,6.18
2023-11-22T10:28:15.698Z,5.65
2023-11-22T10:30:43.467Z,6.33
2023-11-22T10:33:14.894Z,6.03
2023-11-22T10:35:44.683Z,6.47
2023-11-22T10:38:12.225Z,6.63
2023-11-22T10:40:40.196Z,6.90
2023-11-22T10:43:10.019Z,6.72
2023-11-22T10:48:10.261Z,6.47
2023-11-22T10:50:38.972Z,7.05
2023-11-22T10:53:08.966Z,6.50
2023-11-22T10:55:37.319Z,6.93
2023-11-22T10:58:05.910Z,6.80
2023-11-22T11:00:34.010Z,6.13
2023-11-22T11:03:03.441Z,5.40
2023-11-22T11:05:33.749Z,5.60
2023-11-22T11:08:02.923Z,6.18
2023-11-22T11:10:31.691Z,6.55
2023-11-22T11:12:59.433Z,5.55
2023-11-22T11:15:28.718Z,5.60
2023-11-22T11:17:56.634Z,5.63
2023-11-22T11:20:25.279Z,6.15
2023-11-22T11:22:56.232Z,5.78
2023-11-22T11:25:24.661Z,6.07
2023-11-22T11:27:59.254Z,6.10
2023-11-22T11:30:45.678Z,5.68
2023-11-22T11:33:18.342Z,6.07
2023-11-22T11:35:48.133Z,5.90
2023-11-22T11:38:18.318Z,6.15
2023-11-22T11:40:48.616Z,6.40
2023-11-22T11:43:16.194Z,5.82
2023-11-22T11:45:47.164Z,6.60
2023-11-22T11:48:18.883Z,6.65
2023-11-22T11:50:48.477Z,6.60
2023-11-22T11:53:20.276Z,6.53
2023-11-22T11:55:51.247Z,5.85
2023-11-22T11:58:19.560Z,6.45
2023-11-22T12:00:47.686Z,6.15
2023-11-22T12:03:22.183Z,5.63
2023-11-22T12:05:50.317Z,6.20
2023-11-22T12:08:19.954Z,6.30
2023-11-22T12:10:49.998Z,6.97
2023-11-22T12:13:18.769Z,6.07
2023-11-22T12:15:46.510Z,6.30
2023-11-22T12:18:14.142Z,7.03
2023-11-22T12:20:41.844Z,6.18
2023-11-22T12:23:09.590Z,6.53
2023-11-22T12:25:38.614Z,7.03
2023-11-22T12:28:06.311Z,7.23
2023-11-22T12:30:35.378Z,6.35
2023-11-22T12:33:04.804Z,6.40
2023-11-22T12:35:33.151Z,6.22
2023-11-22T12:38:00.986Z,7.10
2023-11-22T12:40:30.822Z,5.85
2023-11-22T12:45:29.372Z,6.25
2023-11-22T12:47:57.302Z,6.18
2023-11-22T12:50:31.820Z,6.05
2023-11-22T12:53:00.032Z,6.93
2023-11-22T12:55:27.690Z,5.28
2023-11-22T12:57:58.747Z,7.32
2023-11-22T13:00:30.256Z,7.45
2023-11-22T13:03:03.402Z,6.35
2023-11-22T13:05:32.398Z,6.40
2023-11-22T13:08:02.330Z,6.25
2023-11-22T13:10:30.667Z,5.97
2023-11-22T13:12:58.481Z,6.65
2023-11-22T13:15:27.912Z,6.78
2023-11-22T13:17:56.620Z,6.25
2023-11-22T13:20:26.704Z,6.60
2023-11-22T13:22:54.320Z,6.35
2023-11-22T13:25:21.864Z,5.38
2023-11-22T13:27:50.052Z,5.80
2023-11-22T13:30:20.396Z,6.22
2023-11-22T13:32:50.371Z,6.65
2023-11-22T13:35:18.925Z,6.05
2023-11-22T13:37:47.331Z,6.30
2023-11-22T13:40:17.491Z,6.80
2023-11-22T13:42:45.405Z,6.15
2023-11-22T13:45:16.405Z,6.20
2023-11-22T13:47:45.680Z,6.22
2023-11-22T13:50:16.563Z,6.25
2023-11-22T13:52:44.176Z,6.13
2023-11-22T13:55:13.813Z,7.15
2023-11-22T13:57:41.326Z,5.70
2023-11-22T14:00:13.374Z,7.03
2023-11-22T14:02:41.561Z,6.40
2023-11-22T14:05:09.632Z,6.50
2023-11-22T14:07:38.728Z,5.78
2023-11-22T14:10:07.343Z,6.55
2023-11-22T14:12:34.913Z,6.40
2023-11-22T14:15:02.625Z,6.30
2023-11-22T14:17:30.743Z,7.05
2023-11-22T14:19:58.270Z,6.82
2023-11-22T14:22:25.789Z,6.88
2023-11-22T14:24:54.690Z,6.50
2023-11-22T14:27:22.897Z,7.17
2023-11-22T14:29:51.596Z,6.90
2023-11-22T14:32:20.863Z,7.00
2023-11-22T14:34:48.772Z,6.10
2023-11-22T14:37:16.517Z,6.78
2023-11-22T14:39:45.454Z,6.50
2023-11-22T14:42:15.224Z,6.10
2023-11-22T14:47:20.478Z,9.63
2023-11-22T14:49:48.037Z,6.63
2023-11-22T14:52:17.318Z,7.20
2023-11-22T14:54:45.786Z,6.22
2023-11-22T14:57:14.675Z,6.68
2023-11-22T14:59:42.838Z,6.53
2023-11-22T15:02:10.576Z,7.03
2023-11-22T15:04:38.481Z,6.10
2023-11-22T15:07:06.318Z,6.55
2023-11-22T15:09:34.404Z,7.40
2023-11-22T15:12:04.774Z,6.68
2023-11-22T15:14:34.033Z,5.88
2023-11-22T15:17:01.893Z,3.10
2023-11-22T15:19:29.458Z,5.30
2023-11-22T15:21:56.919Z,4.90
2023-11-22T15:24:24.409Z,5.15
2023-11-22T15:26:52.355Z,6.85
2023-11-22T15:29:19.878Z,6.47
2023-11-22T15:31:48.890Z,7.63
2023-11-22T15:34:16.549Z,10.75
2023-11-22T15:36:44.314Z,6.30
2023-11-22T15:39:16.169Z,5.63
2023-11-22T15:41:44.689Z,5.65
2023-11-22T15:44:13.815Z,5.78
2023-11-22T15:46:42.495Z,5.70
2023-11-22T15:49:11.530Z,5.70
2023-11-22T15:51:39.005Z,5.80
2023-11-22T15:54:07.147Z,6.63
2023-11-22T15:56:34.745Z,7.03
2023-11-22T15:59:02.295Z,5.50
2023-11-22T16:01:30.075Z,5.38
2023-11-22T16:03:57.791Z,5.70
2023-11-22T16:06:29.105Z,6.80
2023-11-22T16:08:57.508Z,7.72
2023-11-22T16:11:25.201Z,7.15
2023-11-22T16:13:52.915Z,6.40
2023-11-22T16:16:23.148Z,8.93
2023-11-22T16:18:50.934Z,9.77
2023-11-22T16:21:18.990Z,9.70
2023-11-22T16:23:48.139Z,7.82
2023-11-22T16:26:15.985Z,6.60
2023-11-22T16:28:43.533Z,6.22
2023-11-22T16:31:12.553Z,5.63
2023-11-22T16:33:40.337Z,5.43
2023-11-22T16:36:08.340Z,5.30
2023-11-22T16:38:36.070Z,4.97
2023-11-22T16:41:07.110Z,4.93
2023-11-22T16:43:35.870Z,4.75
2023-11-22T16:46:03.545Z,5.93
2023-11-22T16:48:31.077Z,5.00
2023-11-22T16:50:58.712Z,5.30
2023-11-22T16:53:26.323Z,4.55
2023-11-22T16:55:54.677Z,4.80
2023-11-22T16:58:23.831Z,5.13
2023-11-22T17:00:52.298Z,5.13
2023-11-22T17:03:23.384Z,5.22
2023-11-22T17:05:52.382Z,5.25
2023-11-22T17:08:20.376Z,5.28
2023-11-22T17:10:48.262Z,4.70
2023-11-22T17:13:16.654Z,5.38
2023-11-22T17:15:46.310Z,7.00
2023-11-22T17:18:14.312Z,5.13
2023-11-22T17:20:43.071Z,10.63
2023-11-22T17:23:10.861Z,16.15
2023-11-22T17:25:38.397Z,28.48
2023-11-22T17:28:05.950Z,13.52
2023-11-22T17:30:34.766Z,24.10
2023-11-22T17:33:03.911Z,12.40
2023-11-22T17:35:31.628Z,11.65
2023-11-22T17:38:01.687Z,5.82
2023-11-22T17:40:30.033Z,5.53
2023-11-22T17:43:00.277Z,5.30
2023-11-22T17:45:28.609Z,7.10
2023-11-22T17:47:56.533Z,5.90
2023-11-22T17:50:25.596Z,5.85
2023-11-22T17:52:53.558Z,4.80
2023-11-22T17:55:21.024Z,5.00
2023-11-22T17:57:48.542Z,5.40
2023-11-22T18:00:17.456Z,8.18
2023-11-22T18:02:45.263Z,5.13
2023-11-22T18:05:12.873Z,5.93
2023-11-22T18:07:41.825Z,5.13
2023-11-22T18:10:09.587Z,3.93
2023-11-22T18:12:37.080Z,7.50
2023-11-22T18:15:04.793Z,4.20
2023-11-22T18:17:32.457Z,3.30
2023-11-22T18:19:59.951Z,5.13
2023-11-22T18:22:27.407Z,4.38
2023-11-22T18:24:56.297Z,4.40
2023-11-22T18:27:23.779Z,5.30
2023-11-22T18:29:51.287Z,3.65
2023-11-22T18:32:18.839Z,5.15
2023-11-22T18:34:46.352Z,4.30
2023-11-22T18:37:13.825Z,3.72
2023-11-22T18:39:41.298Z,4.05
2023-11-22T18:42:10.263Z,2.47
2023-11-22T18:44:39.845Z,5.63
2023-11-22T18:47:09.040Z,4.35
2023-11-22T18:49:37.168Z,3.75
2023-11-22T18:52:05.114Z,3.45
2023-11-22T18:54:32.654Z,6.55
2023-11-22T18:57:01.497Z,5.07
2023-11-22T18:59:30.833Z,3.60
2023-11-22T19:02:00.227Z,4.80
2023-11-22T19:04:30.509Z,4.13
2023-11-22T19:06:58.048Z,4.47
2023-11-22T19:09:25.595Z,5.03
2023-11-22T19:11:55.245Z,4.35
2023-11-22T19:14:26.562Z,4.53
2023-11-22T19:16:58.207Z,4.95
2023-11-22T19:19:26.164Z,6.00
2023-11-22T19:21:53.653Z,5.57
2023-11-22T19:24:23.460Z,5.35
2023-11-22T19:29:21.399Z,4.15
2023-11-22T19:31:49.024Z,5.57
2023-11-22T19:34:17.913Z,3.05
2023-11-22T19:36:45.388Z,4.47
2023-11-22T19:39:14.792Z,4.47
2023-11-22T19:41:42.550Z,4.15
2023-11-22T19:44:12.690Z,3.75
2023-11-22T19:46:43.268Z,4.45
2023-11-22T19:49:13.529Z,3.17
2023-11-22T19:51:42.992Z,5.15
2023-11-22T19:54:10.480Z,3.17
2023-11-22T19:56:38.016Z,3.63
2023-11-22T19:59:05.525Z,3.00
2023-11-22T20:01:35.911Z,3.58
2023-11-22T20:04:04.063Z,3.92
2023-11-22T20:06:31.670Z,3.50
2023-11-22T20:09:00.547Z,3.42
2023-11-22T20:11:28.037Z,3.37
2023-11-22T20:13:55.564Z,2.40
2023-11-22T20:16:23.076Z,3.85
2023-11-22T20:18:51.337Z,3.47
2023-11-22T20:21:18.870Z,3.92
2023-11-22T20:23:46.390Z,2.65
2023-11-22T20:26:16.067Z,4.18
2023-11-22T20:28:44.636Z,3.40
2023-11-22T20:31:12.116Z,3.17
2023-11-22T20:33:39.746Z,3.47
2023-11-22T20:36:07.429Z,3.38
2023-11-22T20:38:35.037Z,2.58
2023-11-22T20:41:02.530Z,3.75
2023-11-22T20:43:33.722Z,3.03
2023-11-22T20:46:02.947Z,3.97
2023-11-22T20:48:31.707Z,2.50
2023-11-22T20:50:59.237Z,3.80
2023-11-22T20:53:28.037Z,3.35
2023-11-22T20:55:55.898Z,2.63
2023-11-22T20:58:23.385Z,1.65
2023-11-22T21:00:52.180Z,2.42
2023-11-22T21:03:19.857Z,1.73
2023-11-22T21:05:49.003Z,2.40
2023-11-22T21:08:21.559Z,2.40
2023-11-22T21:10:51.755Z,2.45
2023-11-22T21:13:19.442Z,1.92
2023-11-22T21:15:47.032Z,2.53
2023-11-22T21:18:16.386Z,1.60
2023-11-22T21:20:43.954Z,2.38
2023-11-22T21:23:12.785Z,1.10
2023-11-22T21:25:40.300Z,2.15
2023-11-22T21:28:08.317Z,2.05
2023-11-22T21:30:35.808Z,2.05
2023-11-22T21:33:03.393Z,1.98
2023-11-22T21:35:32.450Z,2.00
2023-11-22T21:37:59.934Z,1.83
2023-11-22T21:40:28.552Z,1.65
2023-11-22T21:42:56.031Z,2.00
2023-11-22T21:45:23.522Z,1.75
2023-11-22T21:47:51.048Z,1.70
2023-11-22T21:50:19.675Z,1.90
2023-11-22T21:52:48.564Z,1.38
2023-11-22T21:55:16.112Z,1.63
2023-11-22T21:57:44.977Z,1.40
2023-11-22T22:00:15.714Z,1.70
2023-11-22T22:02:43.675Z,2.05
2023-11-22T22:05:11.341Z,1.10
2023-11-22T22:07:39.110Z,1.70
2023-11-22T22:10:09.083Z,1.35
2023-11-22T22:12:36.568Z,1.70
2023-11-22T22:15:04.159Z,2.00
2023-11-22T22:17:31.739Z,1.50
2023-11-22T22:19:59.505Z,2.10
2023-11-22T22:22:28.444Z,1.88
2023-11-22T22:24:55.943Z,1.50
2023-11-22T22:27:24.896Z,1.38
2023-11-22T22:29:52.445Z,1.57
2023-11-22T22:32:20.045Z,1.40
2023-11-22T22:34:47.778Z,1.25
2023-11-22T22:37:15.264Z,1.75
2023-11-22T22:39:42.736Z,1.98
2023-11-22T22:42:10.240Z,1.75
2023-11-22T22:44:39.109Z,1.90
2023-11-22T22:47:06.639Z,2.05
2023-11-22T22:49:34.529Z,1.55
2023-11-22T22:52:08.345Z,1.80
2023-11-22T22:54:39.421Z,1.73
2023-11-22T22:57:06.902Z,1.23
2023-11-22T22:59:34.621Z,1.23
2023-11-22T23:02:03.906Z,1.27
2023-11-22T23:04:31.472Z,0.93
2023-11-22T23:06:59.135Z,1.90
2023-11-22T23:09:27.015Z,1.65
2023-11-22T23:11:55.024Z,1.98
2023-11-22T23:14:22.485Z,1.50
2023-11-22T23:16:49.988Z,1.67
2023-11-22T23:19:19.493Z,1.98
2023-11-22T23:21:48.971Z,1.45
2023-11-22T23:24:16.398Z,1.55
2023-11-22T23:26:43.972Z,2.00
2023-11-22T23:29:12.844Z,1.58
2023-11-22T23:31:42.459Z,1.38
2023-11-22T23:34:09.998Z,1.73
2023-11-22T23:36:41.565Z,1.65
2023-11-22T23:39:11.735Z,1.83
2023-11-22T23:41:39.276Z,1.60
2023-11-22T23:44:07.120Z,1.80
2023-11-22T23:46:38.737Z,1.75
2023-11-22T23:49:08.150Z,1.95
2023-11-22T23:51:35.871Z,1.70
2023-11-22T23:54:04.807Z,1.27
2023-11-22T23:56:33.270Z,1.50
2023-11-22T23:59:01.808Z,1.73
